createdAt,value
2023-11-08T00:00:15.914Z,19.70
2023-11-08T00:03:02.964Z,20.55
2023-11-08T00:05:32.265Z,19.52
2023-11-08T00:07:59.170Z,17.80
2023-11-08T00:10:26.214Z,19.70
2023-11-08T00:12:53.026Z,20.33
2023-11-08T00:15:20.248Z,20.20
2023-11-08T00:17:47.141Z,18.05
2023-11-08T00:20:14.257Z,17.67
2023-11-08T00:22:45.916Z,18.00
2023-11-08T00:25:13.142Z,18.95
2023-11-08T00:27:40.308Z,18.50
2023-11-08T00:30:08.161Z,20.08
2023-11-08T00:32:35.153Z,18.10
2023-11-08T00:35:02.440Z,19.63
2023-11-08T00:37:29.462Z,18.83
2023-11-08T00:39:56.638Z,18.92
2023-11-08T00:42:23.475Z,18.92
2023-11-08T00:44:50.578Z,18.17
2023-11-08T00:47:17.442Z,19.77
2023-11-08T00:49:44.632Z,17.65
2023-11-08T00:52:12.505Z,18.42
2023-11-08T00:54:40.051Z,16.85
2023-11-08T00:57:09.449Z,17.27
2023-11-08T00:59:37.085Z,18.58
2023-11-08T01:02:04.635Z,16.88
2023-11-08T01:04:31.832Z,17.27
2023-11-08T01:06:58.866Z,19.42
2023-11-08T01:09:26.489Z,18.85
2023-11-08T01:11:53.679Z,17.30
2023-11-08T01:14:22.341Z,17.60
2023-11-08T01:16:49.341Z,18.27
2023-11-08T01:19:16.771Z,17.88
2023-11-08T01:21:47.024Z,18.23
2023-11-08T01:24:15.197Z,18.10
2023-11-08T01:26:42.376Z,16.80
2023-11-08T01:29:09.451Z,17.70
2023-11-08T01:31:36.475Z,17.77
2023-11-08T01:34:03.778Z,18.50
2023-11-08T01:36:31.735Z,17.45
2023-11-08T01:38:59.801Z,17.73
2023-11-08T01:41:26.749Z,17.40
2023-11-08T01:43:53.833Z,16.90
2023-11-08T01:46:23.829Z,17.70
2023-11-08T01:48:54.293Z,17.52
2023-11-08T01:51:22.255Z,18.60
2023-11-08T01:53:51.292Z,17.95
2023-11-08T01:56:18.876Z,19.15
2023-11-08T01:58:47.632Z,17.27
2023-11-08T02:01:14.795Z,19.05
2023-11-08T02:03:45.852Z,18.20
2023-11-08T02:06:14.712Z,17.88
2023-11-08T02:08:42.245Z,17.85
2023-11-08T02:11:10.306Z,19.17
2023-11-08T02:13:37.414Z,17.67
2023-11-08T02:16:04.990Z,17.80
2023-11-08T02:18:33.128Z,15.48
2023-11-08T02:21:01.350Z,11.80
2023-11-08T02:23:29.225Z,11.68
2023-11-08T02:25:56.676Z,10.15
2023-11-08T02:28:24.562Z,7.88
2023-11-08T02:30:56.185Z,6.30
2023-11-08T02:33:28.433Z,4.32
2023-11-08T02:35:56.019Z,3.30
2023-11-08T02:38:23.154Z,3.60
2023-11-08T02:40:50.265Z,2.80
2023-11-08T02:43:17.682Z,2.80
2023-11-08T02:45:45.138Z,2.55
2023-11-08T02:48:12.346Z,2.72
2023-11-08T02:50:41.297Z,2.35
2023-11-08T02:53:08.987Z,2.55
2023-11-08T02:55:36.657Z,2.05
2023-11-08T02:58:04.250Z,2.13
2023-11-08T03:00:31.666Z,2.35
2023-11-08T03:02:59.392Z,1.98
2023-11-08T03:05:26.564Z,1.90
2023-11-08T03:07:54.776Z,2.28
2023-11-08T03:10:22.651Z,1.85
2023-11-08T03:12:54.698Z,2.00
2023-11-08T03:15:24.938Z,1.38
2023-11-08T03:17:53.211Z,1.73
2023-11-08T03:20:21.000Z,1.52
2023-11-08T03:22:48.566Z,1.63
2023-11-08T03:25:18.727Z,1.05
2023-11-08T03:27:47.794Z,0.93
2023-11-08T03:30:16.761Z,0.75
2023-11-08T03:32:44.817Z,1.10
2023-11-08T03:35:13.238Z,1.52
2023-11-08T03:37:44.487Z,1.35
2023-11-08T03:40:16.727Z,1.60
2023-11-08T03:42:45.441Z,1.63
2023-11-08T03:45:13.136Z,1.55
2023-11-08T03:47:41.476Z,1.88
2023-11-08T03:50:08.850Z,1.95
2023-11-08T03:52:37.103Z,1.92
2023-11-08T03:55:04.559Z,2.55
2023-11-08T03:57:32.024Z,2.42
2023-11-08T03:59:58.950Z,2.70
2023-11-08T04:02:26.354Z,2.65
2023-11-08T04:04:53.336Z,2.67
2023-11-08T04:07:20.657Z,2.88
2023-11-08T04:09:48.001Z,3.00
2023-11-08T04:12:15.523Z,2.97
2023-11-08T04:14:42.471Z,3.42
2023-11-08T04:17:10.198Z,3.67
2023-11-08T04:19:37.938Z,2.65
2023-11-08T04:22:06.739Z,2.65
2023-11-08T04:24:34.642Z,2.90
2023-11-08T04:27:04.450Z,2.95
2023-11-08T04:29:34.434Z,2.72
2023-11-08T04:32:01.687Z,3.42
2023-11-08T04:34:28.689Z,2.80
2023-11-08T04:36:55.844Z,2.45
2023-11-08T04:39:23.853Z,2.58
2023-11-08T04:41:52.851Z,2.13
2023-11-08T04:44:20.649Z,2.65
2023-11-08T04:46:48.112Z,2.45
2023-11-08T04:49:15.847Z,2.58
2023-11-08T04:51:43.944Z,2.90
2023-11-08T04:54:10.972Z,3.25
2023-11-08T04:56:38.187Z,3.22
2023-11-08T04:59:06.957Z,4.20
2023-11-08T05:01:34.045Z,4.22
2023-11-08T05:04:01.814Z,3.65
2023-11-08T05:06:29.382Z,4.10
2023-11-08T05:08:59.252Z,4.70
2023-11-08T05:11:26.798Z,4.55
2023-11-08T05:13:55.310Z,5.30
2023-11-08T05:16:23.051Z,5.13
2023-11-08T05:18:51.562Z,5.43
2023-11-08T05:21:24.380Z,5.90
2023-11-08T05:23:51.256Z,5.45
2023-11-08T05:26:19.886Z,5.30
2023-11-08T05:28:46.662Z,4.97
2023-11-08T05:31:13.851Z,4.68
2023-11-08T05:33:41.782Z,4.72
2023-11-08T05:36:09.166Z,4.00
2023-11-08T05:38:36.059Z,4.90
2023-11-08T05:41:03.280Z,4.55
2023-11-08T05:43:30.279Z,4.53
2023-11-08T05:45:57.706Z,4.50
2023-11-08T05:48:24.726Z,4.45
2023-11-08T05:50:51.944Z,4.00
2023-11-08T05:53:20.733Z,3.28
2023-11-08T05:55:47.853Z,3.40
2023-11-08T05:58:15.714Z,3.78
2023-11-08T06:00:43.115Z,4.00
2023-11-08T06:03:10.453Z,3.90
2023-11-08T06:05:39.028Z,3.80
2023-11-08T06:08:05.878Z,3.50
2023-11-08T06:10:34.556Z,4.03
2023-11-08T06:13:03.720Z,3.70
2023-11-08T06:15:30.952Z,4.00
2023-11-08T06:17:58.390Z,3.80
2023-11-08T06:20:25.665Z,3.80
2023-11-08T06:22:52.518Z,4.40
2023-11-08T06:25:19.876Z,4.50
2023-11-08T06:27:49.559Z,4.32
2023-11-08T06:30:18.095Z,4.35
2023-11-08T06:32:45.030Z,4.10
2023-11-08T06:35:12.173Z,5.20
2023-11-08T06:37:39.168Z,4.15
2023-11-08T06:40:08.341Z,4.25
2023-11-08T06:42:35.269Z,4.15
2023-11-08T06:45:05.272Z,3.47
2023-11-08T06:47:32.278Z,3.80
2023-11-08T06:49:59.475Z,3.50
2023-11-08T06:52:29.886Z,3.97
2023-11-08T06:54:57.225Z,3.38
2023-11-08T06:57:24.197Z,3.55
2023-11-08T06:59:52.401Z,2.78
2023-11-08T07:02:21.090Z,3.08
2023-11-08T07:04:48.287Z,3.33
2023-11-08T07:07:15.277Z,3.05
2023-11-08T07:09:42.482Z,3.00
2023-11-08T07:12:12.289Z,2.80
2023-11-08T07:14:40.615Z,3.25
2023-11-08T07:17:07.865Z,3.00
2023-11-08T07:19:35.095Z,2.92
2023-11-08T07:22:02.034Z,3.17
2023-11-08T07:24:29.209Z,3.10
2023-11-08T07:26:56.148Z,3.60
2023-11-08T07:29:23.584Z,2.75
2023-11-08T07:31:53.314Z,3.10
2023-11-08T07:34:23.844Z,3.25
2023-11-08T07:36:53.856Z,2.30
2023-11-08T07:39:27.194Z,2.80
2023-11-08T07:44:22.059Z,3.50
2023-11-08T07:46:49.133Z,3.00
2023-11-08T07:49:17.334Z,3.03
2023-11-08T07:51:45.555Z,3.25
2023-11-08T07:54:12.664Z,2.50
2023-11-08T07:56:39.500Z,3.10
2023-11-08T07:59:06.795Z,2.60
2023-11-08T08:01:33.663Z,2.72
2023-11-08T08:04:01.530Z,2.85
2023-11-08T08:06:28.526Z,2.85
2023-11-08T08:08:56.887Z,2.35
2023-11-08T08:11:23.875Z,2.38
2023-11-08T08:13:51.208Z,2.17
2023-11-08T08:16:21.057Z,2.25
2023-11-08T08:18:49.054Z,2.60
2023-11-08T08:21:16.079Z,2.22
2023-11-08T08:23:51.200Z,2.20
2023-11-08T08:26:21.596Z,2.13
2023-11-08T08:28:50.810Z,1.92
2023-11-08T08:31:18.339Z,2.08
2023-11-08T08:33:46.451Z,1.85
2023-11-08T08:36:13.561Z,2.17
2023-11-08T08:38:40.712Z,2.60
2023-11-08T08:41:07.541Z,1.70
2023-11-08T08:43:34.663Z,1.52
2023-11-08T08:46:01.536Z,1.77
2023-11-08T08:48:29.982Z,1.90
2023-11-08T08:50:56.890Z,1.70
2023-11-08T08:53:24.016Z,1.65
2023-11-08T08:55:50.825Z,1.50
2023-11-08T08:58:20.810Z,1.10
2023-11-08T09:00:47.756Z,1.40
2023-11-08T09:03:17.283Z,1.30
2023-11-08T09:05:44.417Z,1.60
2023-11-08T09:08:11.571Z,1.08
2023-11-08T09:10:38.596Z,1.40
2023-11-08T09:13:06.521Z,0.93
2023-11-08T09:15:33.585Z,1.00
2023-11-08T09:18:00.872Z,1.13
2023-11-08T09:20:27.769Z,1.05
2023-11-08T09:22:55.069Z,0.98
2023-11-08T09:25:21.912Z,1.10
2023-11-08T09:27:49.212Z,0.93
2023-11-08T09:30:16.166Z,0.90
2023-11-08T09:32:45.419Z,1.02
2023-11-08T09:35:12.472Z,1.65
2023-11-08T09:37:40.116Z,1.48
2023-11-08T09:40:11.052Z,1.10
2023-11-08T09:42:39.342Z,1.15
2023-11-08T09:45:08.571Z,0.93
2023-11-08T09:47:38.768Z,0.98
2023-11-08T09:50:15.905Z,0.90
2023-11-08T09:52:43.200Z,0.70
2023-11-08T09:55:13.697Z,1.50
2023-11-08T09:57:44.896Z,0.70
2023-11-08T10:00:12.371Z,0.65
2023-11-08T10:02:41.259Z,1.08
2023-11-08T10:05:08.780Z,0.75
2023-11-08T10:07:39.189Z,0.55
2023-11-08T10:10:08.119Z,1.00
2023-11-08T10:12:35.326Z,1.27
2023-11-08T10:15:04.900Z,0.60
2023-11-08T10:19:30.858Z,0.98
2023-11-08T10:20:37.175Z,0.63
2023-11-08T10:23:08.715Z,0.50
2023-11-08T10:25:36.025Z,0.70
2023-11-08T10:28:08.275Z,0.60
2023-11-08T10:30:40.200Z,0.45
2023-11-08T10:33:08.540Z,0.65
2023-11-08T10:35:43.638Z,0.60
2023-11-08T10:38:12.024Z,0.77
2023-11-08T10:40:39.163Z,0.60
2023-11-08T10:43:06.370Z,0.60
2023-11-08T10:45:36.045Z,0.57
2023-11-08T10:48:05.213Z,0.52
2023-11-08T10:50:33.517Z,0.40
2023-11-08T10:53:00.629Z,0.52
2023-11-08T10:55:27.754Z,1.05
2023-11-08T10:57:59.494Z,0.52
2023-11-08T11:00:27.732Z,0.85
2023-11-08T11:03:06.803Z,0.57
2023-11-08T11:05:38.408Z,0.30
2023-11-08T11:08:07.214Z,0.40
2023-11-08T11:10:34.735Z,0.50
2023-11-08T11:13:15.010Z,0.50
2023-11-08T11:16:14.385Z,0.40
2023-11-08T11:21:24.121Z,0.60
2023-11-08T11:23:52.406Z,0.38
2023-11-08T11:26:56.005Z,0.30
2023-11-08T11:29:23.120Z,0.40
2023-11-08T11:31:50.288Z,0.43
2023-11-08T11:34:23.621Z,0.40
2023-11-08T11:37:15.335Z,0.80
2023-11-08T11:40:04.535Z,0.40
2023-11-08T11:42:32.632Z,0.60
2023-11-08T11:45:01.500Z,0.57
2023-11-08T11:47:31.952Z,0.50
2023-11-08T11:50:03.155Z,0.43
2023-11-08T11:52:32.568Z,0.65
2023-11-08T11:55:02.212Z,0.70
2023-11-08T11:57:31.062Z,0.60
2023-11-08T12:00:01.515Z,0.90
2023-11-08T12:02:30.413Z,0.60
2023-11-08T12:04:59.364Z,0.40
2023-11-08T12:07:26.797Z,0.70
2023-11-08T12:09:54.715Z,0.43
2023-11-08T12:12:28.898Z,0.80
2023-11-08T12:15:12.678Z,0.63
2023-11-08T12:17:39.873Z,1.33
2023-11-08T12:20:08.170Z,0.90
2023-11-08T12:22:37.529Z,0.55
2023-11-08T12:25:06.938Z,0.70
2023-11-08T12:27:33.819Z,0.70
2023-11-08T12:30:00.995Z,0.50
2023-11-08T12:32:28.526Z,0.68
2023-11-08T12:34:55.669Z,0.80
2023-11-08T12:37:23.505Z,1.38
2023-11-08T12:39:51.575Z,0.90
2023-11-08T12:42:18.529Z,0.70
2023-11-08T12:44:50.137Z,0.55
2023-11-08T12:47:17.217Z,0.60
2023-11-08T12:49:45.460Z,0.65
2023-11-08T12:52:13.536Z,0.75
2023-11-08T12:54:40.778Z,0.50
2023-11-08T12:57:07.739Z,0.63
2023-11-08T12:59:44.724Z,0.35
2023-11-08T13:02:15.067Z,0.68
2023-11-08T13:04:43.125Z,0.60
2023-11-08T13:07:10.884Z,0.70
2023-11-08T13:09:41.595Z,0.40
2023-11-08T13:12:09.294Z,0.40
2023-11-08T13:14:36.483Z,0.63
2023-11-08T13:17:04.869Z,0.50
2023-11-08T13:19:32.241Z,0.50
2023-11-08T13:21:59.238Z,0.77
2023-11-08T13:24:26.418Z,0.70
2023-11-08T13:26:54.156Z,1.17
2023-11-08T13:29:22.098Z,0.68
2023-11-08T13:31:50.312Z,0.85
2023-11-08T13:34:17.785Z,0.65
2023-11-08T13:36:44.852Z,0.60
2023-11-08T13:39:12.277Z,0.60
2023-11-08T13:41:39.319Z,0.77
2023-11-08T13:44:06.766Z,0.60
2023-11-08T13:46:33.582Z,1.52
2023-11-08T13:49:01.970Z,0.50
2023-11-08T13:51:29.076Z,0.50
2023-11-08T13:53:56.154Z,0.60
2023-11-08T13:56:24.373Z,0.60
2023-11-08T13:58:51.507Z,0.45
2023-11-08T14:01:18.685Z,0.50
2023-11-08T14:03:46.028Z,0.40
2023-11-08T14:06:13.904Z,0.70
2023-11-08T14:08:41.639Z,0.57
2023-11-08T14:11:09.376Z,0.63
2023-11-08T14:13:36.932Z,0.40
2023-11-08T14:16:06.334Z,0.45
2023-11-08T14:18:33.663Z,0.73
2023-11-08T14:21:03.298Z,0.88
2023-11-08T14:23:30.356Z,0.47
2023-11-08T14:25:57.346Z,0.70
2023-11-08T14:28:24.849Z,0.50
2023-11-08T14:30:51.939Z,0.45
2023-11-08T14:33:19.152Z,0.50
2023-11-08T14:35:46.227Z,0.50
2023-11-08T14:38:13.750Z,0.52
2023-11-08T14:40:41.830Z,0.47
2023-11-08T14:43:10.799Z,0.77
2023-11-08T14:45:37.818Z,1.02
2023-11-08T14:48:06.286Z,0.95
2023-11-08T14:50:33.197Z,0.75
2023-11-08T14:53:03.633Z,1.13
2023-11-08T14:55:30.614Z,1.08
2023-11-08T14:57:57.762Z,1.95
2023-11-08T15:00:25.196Z,0.90
2023-11-08T15:02:53.606Z,0.88
2023-11-08T15:05:21.153Z,0.90
2023-11-08T15:09:46.622Z,0.80
2023-11-08T15:10:37.282Z,0.93
2023-11-08T15:13:04.997Z,0.85
2023-11-08T15:15:31.842Z,0.98
2023-11-08T15:17:59.008Z,0.60
2023-11-08T15:20:25.973Z,1.05
2023-11-08T15:23:00.124Z,1.00
2023-11-08T15:25:27.067Z,0.88
2023-11-08T15:27:54.396Z,1.20
2023-11-08T15:30:21.365Z,0.82
2023-11-08T15:32:48.684Z,1.50
2023-11-08T15:35:15.709Z,1.30
2023-11-08T15:37:42.853Z,1.20
2023-11-08T15:40:10.240Z,1.15
2023-11-08T15:42:37.355Z,1.30
2023-11-08T15:45:05.432Z,1.48
2023-11-08T15:47:32.592Z,1.67
2023-11-08T15:49:59.456Z,1.60
2023-11-08T15:52:26.557Z,1.45
2023-11-08T15:54:53.408Z,1.95
2023-11-08T15:57:22.190Z,1.60
2023-11-08T15:59:48.988Z,1.40
2023-11-08T16:02:17.756Z,1.42
2023-11-08T16:04:44.998Z,1.55
2023-11-08T16:07:13.545Z,1.30
2023-11-08T16:09:42.095Z,1.83
2023-11-08T16:12:09.912Z,1.95
2023-11-08T16:14:37.425Z,2.17
2023-11-08T16:17:05.268Z,1.55
2023-11-08T16:19:32.325Z,1.90
2023-11-08T16:21:59.627Z,2.00
2023-11-08T16:24:26.499Z,2.13
2023-11-08T16:26:54.682Z,1.92
2023-11-08T16:29:50.230Z,2.30
2023-11-08T16:32:34.369Z,2.00
2023-11-08T16:34:58.071Z,2.20
2023-11-08T16:37:25.712Z,2.47
2023-11-08T16:39:56.498Z,2.28
2023-11-08T16:42:24.118Z,1.90
2023-11-08T16:44:51.336Z,2.67
2023-11-08T16:47:18.553Z,2.30
2023-11-08T16:49:51.786Z,2.33
2023-11-08T16:52:19.212Z,1.92
2023-11-08T16:54:46.138Z,1.95
2023-11-08T16:57:13.280Z,2.42
2023-11-08T16:59:40.205Z,3.05
2023-11-08T17:02:07.629Z,2.10
2023-11-08T17:04:38.188Z,2.10
2023-11-08T17:07:06.039Z,2.38
2023-11-08T17:09:37.015Z,2.08
2023-11-08T17:12:05.308Z,2.25
2023-11-08T17:14:32.173Z,2.33
2023-11-08T17:16:59.444Z,2.55
2023-11-08T17:19:26.966Z,1.98
2023-11-08T17:21:54.356Z,3.40
2023-11-08T17:24:21.315Z,2.40
2023-11-08T17:26:48.448Z,3.90
2023-11-08T17:29:15.292Z,3.30
2023-11-08T17:31:42.417Z,3.83
2023-11-08T17:34:11.090Z,4.57
2023-11-08T17:36:41.035Z,2.30
2023-11-08T17:39:09.515Z,2.03
2023-11-08T17:41:38.130Z,2.30
2023-11-08T17:44:07.801Z,2.50
2023-11-08T17:46:38.669Z,2.45
2023-11-08T17:49:06.462Z,2.67
2023-11-08T17:51:33.663Z,2.25
2023-11-08T17:54:01.113Z,4.45
2023-11-08T17:56:28.257Z,3.38
2023-11-08T17:58:55.143Z,3.30
2023-11-08T18:01:23.419Z,4.40
2023-11-08T18:03:50.457Z,2.80
2023-11-08T18:06:18.378Z,2.90
2023-11-08T18:08:46.339Z,3.78
2023-11-08T18:11:15.166Z,3.58
2023-11-08T18:13:46.133Z,3.05
2023-11-08T18:16:13.301Z,4.05
2023-11-08T18:18:41.556Z,3.42
2023-11-08T18:21:08.740Z,3.67
2023-11-08T18:23:36.770Z,4.32
2023-11-08T18:26:04.748Z,3.70
2023-11-08T18:28:31.679Z,4.05
2023-11-08T18:30:59.077Z,3.95
2023-11-08T18:33:27.398Z,3.75
2023-11-08T18:35:54.663Z,4.82
2023-11-08T18:38:22.361Z,5.38
2023-11-08T18:40:51.577Z,5.45
2023-11-08T18:43:18.529Z,6.18
2023-11-08T18:45:45.828Z,6.88
2023-11-08T18:48:12.918Z,7.53
2023-11-08T18:50:41.678Z,6.32
2023-11-08T18:53:09.779Z,7.18
2023-11-08T18:55:36.916Z,6.90
2023-11-08T18:58:03.958Z,7.55
2023-11-08T19:00:31.202Z,8.52
2023-11-08T19:02:58.044Z,12.77
2023-11-08T19:05:25.236Z,13.68
2023-11-08T19:07:52.131Z,12.95
2023-11-08T19:10:19.669Z,11.90
2023-11-08T19:12:47.119Z,10.57
2023-11-08T19:15:15.109Z,11.95
2023-11-08T19:17:42.059Z,11.40
2023-11-08T19:20:11.303Z,11.55
2023-11-08T19:22:38.624Z,10.30
2023-11-08T19:25:06.514Z,9.50
2023-11-08T19:27:36.900Z,9.38
2023-11-08T19:30:04.903Z,10.52
2023-11-08T19:32:31.731Z,10.20
2023-11-08T19:35:03.488Z,9.23
2023-11-08T19:37:30.349Z,9.48
2023-11-08T19:39:57.909Z,9.27
2023-11-08T19:42:24.783Z,9.45
2023-11-08T19:44:56.308Z,10.02
2023-11-08T19:47:23.662Z,9.45
2023-11-08T19:49:53.806Z,9.00
2023-11-08T19:52:22.627Z,9.95
2023-11-08T19:54:53.434Z,8.15
2023-11-08T19:57:23.991Z,8.88
2023-11-08T19:59:54.826Z,8.07
2023-11-08T20:02:21.741Z,7.70
2023-11-08T20:04:48.877Z,7.80
2023-11-08T20:07:15.896Z,8.43
2023-11-08T20:09:43.051Z,8.85
2023-11-08T20:12:10.002Z,8.68
2023-11-08T20:14:37.146Z,8.25
2023-11-08T20:17:04.148Z,8.23
2023-11-08T20:19:31.350Z,8.40
2023-11-08T20:21:58.219Z,8.13
2023-11-08T20:24:25.529Z,7.97
2023-11-08T20:26:52.437Z,8.32
2023-11-08T20:29:19.536Z,7.78
2023-11-08T20:31:47.252Z,7.75
2023-11-08T20:34:14.506Z,8.43
2023-11-08T20:36:41.434Z,8.95
2023-11-08T20:39:08.528Z,9.00
2023-11-08T20:41:35.435Z,9.52
2023-11-08T20:44:02.656Z,8.10
2023-11-08T20:46:29.521Z,9.93
2023-11-08T20:48:56.736Z,8.10
2023-11-08T20:51:26.692Z,8.85
2023-11-08T20:53:54.033Z,8.93
2023-11-08T20:56:23.689Z,8.82
2023-11-08T20:58:50.884Z,8.60
2023-11-08T21:01:20.637Z,10.02
2023-11-08T21:03:48.712Z,9.30
2023-11-08T21:06:18.453Z,10.52
2023-11-08T21:08:45.709Z,10.00
2023-11-08T21:11:13.595Z,9.77
2023-11-08T21:13:41.950Z,10.07
2023-11-08T21:16:09.751Z,11.10
2023-11-08T21:18:39.846Z,10.13
2023-11-08T21:21:08.113Z,9.80
2023-11-08T21:23:35.361Z,10.45
2023-11-08T21:26:05.033Z,10.73
2023-11-08T21:28:32.643Z,10.77
2023-11-08T21:31:00.349Z,11.50
2023-11-08T21:33:27.527Z,12.48
2023-11-08T21:35:54.431Z,11.07
2023-11-08T21:38:21.707Z,11.73
2023-11-08T21:40:48.849Z,11.95
2023-11-08T21:43:16.060Z,11.90
2023-11-08T21:45:46.347Z,12.63
2023-11-08T21:48:13.450Z,13.25
2023-11-08T21:50:40.372Z,12.18
2023-11-08T21:53:07.454Z,12.85
2023-11-08T21:55:34.480Z,12.40
2023-11-08T21:58:02.289Z,11.88
2023-11-08T22:00:29.560Z,11.77
2023-11-08T22:02:59.559Z,12.27
2023-11-08T22:05:28.514Z,10.68
2023-11-08T22:07:56.120Z,11.75
2023-11-08T22:10:23.070Z,12.10
2023-11-08T22:12:51.804Z,11.55
2023-11-08T22:15:18.733Z,12.85
2023-11-08T22:17:46.573Z,12.48
2023-11-08T22:20:13.651Z,12.32
2023-11-08T22:22:41.023Z,10.35
2023-11-08T22:25:08.001Z,12.65
2023-11-08T22:27:35.373Z,11.70
2023-11-08T22:30:02.277Z,11.77
2023-11-08T22:32:29.413Z,11.85
2023-11-08T22:34:56.266Z,13.82
2023-11-08T22:37:26.129Z,11.80
2023-11-08T22:39:53.029Z,13.23
2023-11-08T22:42:21.797Z,11.93
2023-11-08T22:44:48.755Z,11.82
2023-11-08T22:47:16.189Z,12.80
2023-11-08T22:49:43.169Z,12.98
2023-11-08T22:52:10.406Z,12.05
2023-11-08T22:54:38.277Z,11.07
2023-11-08T22:57:05.666Z,11.23
2023-11-08T22:59:32.613Z,11.38
2023-11-08T23:02:00.672Z,10.93
2023-11-08T23:04:27.703Z,11.60
2023-11-08T23:06:55.406Z,10.75
2023-11-08T23:09:23.008Z,10.43
2023-11-08T23:11:50.416Z,11.07
2023-11-08T23:14:17.206Z,11.50
2023-11-08T23:16:44.482Z,10.57
2023-11-08T23:19:11.503Z,10.05
2023-11-08T23:21:38.638Z,10.38
2023-11-08T23:24:06.262Z,11.27
2023-11-08T23:26:33.705Z,10.63
2023-11-08T23:29:00.733Z,10.90
2023-11-08T23:31:27.814Z,11.23
2023-11-08T23:33:54.900Z,12.18
2023-11-08T23:36:22.266Z,11.93
2023-11-08T23:38:49.536Z,11.68
2023-11-08T23:41:16.756Z,12.75
2023-11-08T23:43:47.169Z,12.88
2023-11-08T23:46:15.874Z,12.75
2023-11-08T23:48:43.747Z,12.48
2023-11-08T23:51:13.127Z,13.55
2023-11-08T23:53:39.934Z,13.88
2023-11-08T23:56:07.634Z,14.10
2023-11-08T23:58:34.479Z,13.30
